createdAt,value
2014-06-22T00:00:03.470Z,0
2014-06-22T00:00:21.800Z,0
2014-06-22T00:00:40.113Z,0
2014-06-22T00:00:58.441Z,0
2014-06-22T00:01:16.771Z,0
2014-06-22T00:01:35.084Z,0
2014-06-22T00:01:53.412Z,0
2014-06-22T00:02:11.740Z,0
2014-06-22T00:02:30.273Z,0
2014-06-22T00:02:48.398Z,0
2014-06-22T00:03:06.726Z,0
2014-06-22T00:03:25.041Z,0
2014-06-22T00:03:43.369Z,0
2014-06-22T00:04:01.697Z,0
2014-06-22T00:04:20.027Z,0
2014-06-22T00:04:38.355Z,1
2014-06-22T00:04:56.683Z,0
2014-06-22T00:05:15.012Z,0
2014-06-22T00:05:33.325Z,0
2014-06-22T00:05:51.653Z,0
2014-06-22T00:06:10.184Z,0
2014-06-22T00:06:28.327Z,0
2014-06-22T00:06:46.655Z,0
2014-06-22T00:07:04.983Z,0
2014-06-22T00:07:23.313Z,0
2014-06-22T00:07:41.626Z,0
2014-06-22T00:07:59.954Z,0
2014-06-22T00:08:18.285Z,0
2014-06-22T00:08:36.613Z,0
2014-06-22T00:08:54.941Z,0
2014-06-22T00:09:13.270Z,0
2014-06-22T00:09:31.787Z,0
2014-06-22T00:09:49.928Z,0
2014-06-22T00:10:08.240Z,0
2014-06-22T00:10:26.569Z,0
2014-06-22T00:10:44.898Z,0
2014-06-22T00:11:03.226Z,0
2014-06-22T00:11:21.556Z,0
2014-06-22T00:11:39.884Z,0
2014-06-22T00:11:58.400Z,0
2014-06-22T00:12:16.728Z,0
2014-06-22T00:12:34.855Z,0
2014-06-22T00:12:53.386Z,0
2014-06-22T00:13:11.511Z,0
2014-06-22T00:13:29.841Z,0
2014-06-22T00:13:48.185Z,0
2014-06-22T00:14:06.700Z,0
2014-06-22T00:14:24.827Z,0
2014-06-22T00:14:43.156Z,0
2014-06-22T00:15:01.484Z,0
2014-06-22T00:15:19.813Z,0
2014-06-22T00:15:38.344Z,0
2014-06-22T00:15:56.469Z,0
2014-06-22T00:16:14.797Z,1
2014-06-22T00:16:33.127Z,0
2014-06-22T00:16:51.643Z,0
2014-06-22T00:17:09.784Z,0
2014-06-22T00:17:28.099Z,0
2014-06-22T00:17:46.427Z,0
2014-06-22T00:18:04.958Z,0
2014-06-22T00:18:23.038Z,0
2014-06-22T00:18:41.600Z,0
2014-06-22T00:18:59.725Z,0
2014-06-22T00:19:18.069Z,0
2014-06-22T00:19:36.586Z,0
2014-06-22T00:19:54.711Z,0
2014-06-22T00:20:13.040Z,0
2014-06-22T00:20:31.574Z,0
2014-06-22T00:20:49.699Z,0
2014-06-22T00:21:08.027Z,0
2014-06-22T00:21:26.357Z,0
2014-06-22T00:21:44.873Z,0
2014-06-22T00:22:03.013Z,0
2014-06-22T00:22:21.341Z,0
2014-06-22T00:22:39.858Z,0
2014-06-22T00:22:57.983Z,0
2014-06-22T00:23:16.311Z,0
2014-06-22T00:23:34.641Z,0
2014-06-22T00:23:52.969Z,0
2014-06-22T00:24:11.298Z,0
2014-06-22T00:24:29.628Z,0
2014-06-22T00:24:47.956Z,0
2014-06-22T00:25:06.284Z,0
2014-06-22T00:25:24.596Z,0
2014-06-22T00:25:42.928Z,0
2014-06-22T00:26:01.459Z,0
2014-06-22T00:26:19.584Z,0
2014-06-22T00:26:37.914Z,0
2014-06-22T00:26:56.242Z,0
2014-06-22T00:27:14.570Z,0
2014-06-22T00:27:32.883Z,0
2014-06-22T00:27:51.213Z,0
2014-06-22T00:28:09.541Z,0
2014-06-22T00:28:27.869Z,0
2014-06-22T00:28:46.199Z,0
2014-06-22T00:29:04.527Z,0
2014-06-22T00:29:23.059Z,0
2014-06-22T00:29:41.387Z,0
2014-06-22T00:29:59.514Z,0
2014-06-22T00:30:17.842Z,0
2014-06-22T00:30:36.170Z,0
2014-06-22T00:30:54.500Z,0
2014-06-22T00:31:13.016Z,0
2014-06-22T00:31:31.141Z,0
2014-06-22T00:31:49.469Z,0
2014-06-22T00:32:08.002Z,0
2014-06-22T00:32:26.127Z,0
2014-06-22T00:32:44.440Z,0
2014-06-22T00:33:02.770Z,0
2014-06-22T00:33:21.098Z,0
2014-06-22T00:33:39.426Z,0
2014-06-22T00:33:57.754Z,0
2014-06-22T00:34:16.084Z,0
2014-06-22T00:34:34.412Z,0
2014-06-22T00:34:52.725Z,0
2014-06-22T00:35:11.055Z,0
2014-06-22T00:35:29.383Z,0
2014-06-22T00:35:47.711Z,0
2014-06-22T00:36:06.039Z,0
2014-06-22T00:36:24.369Z,0
2014-06-22T00:36:42.698Z,0
2014-06-22T00:37:01.229Z,0
2014-06-22T00:37:19.356Z,0
2014-06-22T00:37:37.684Z,0
2014-06-22T00:37:56.012Z,0
2014-06-22T00:38:14.340Z,0
2014-06-22T00:38:32.655Z,0
2014-06-22T00:38:50.983Z,0
2014-06-22T00:39:09.295Z,0
2014-06-22T00:39:27.625Z,0
2014-06-22T00:39:45.954Z,0
2014-06-22T00:40:04.282Z,0
2014-06-22T00:40:22.612Z,0
2014-06-22T00:40:40.940Z,0
2014-06-22T00:40:59.268Z,0
2014-06-22T00:41:17.987Z,0
2014-06-22T00:41:35.926Z,0
2014-06-22T00:41:54.239Z,0
2014-06-22T00:42:12.567Z,0
2014-06-22T00:42:31.100Z,0
2014-06-22T00:42:49.225Z,0
2014-06-22T00:43:07.756Z,0
2014-06-22T00:43:25.883Z,0
2014-06-22T00:43:44.212Z,0
2014-06-22T00:44:02.540Z,0
2014-06-22T00:44:20.885Z,0
2014-06-22T00:44:39.198Z,0
2014-06-22T00:44:57.526Z,0
2014-06-22T00:45:15.854Z,0
2014-06-22T00:45:34.184Z,0
2014-06-22T00:45:52.512Z,0
2014-06-22T00:46:10.841Z,0
2014-06-22T00:46:29.170Z,0
2014-06-22T00:46:47.482Z,0
2014-06-22T00:47:05.810Z,0
2014-06-22T00:47:24.156Z,0
2014-06-22T00:47:42.469Z,0
2014-06-22T00:48:01.000Z,0
2014-06-22T00:48:19.125Z,0
2014-06-22T00:48:37.456Z,0
2014-06-22T00:48:55.768Z,0
2014-06-22T00:49:14.112Z,0
2014-06-22T00:49:32.427Z,0
2014-06-22T00:49:50.755Z,0
2014-06-22T00:50:09.083Z,0
2014-06-22T00:50:27.412Z,0
2014-06-22T00:50:45.943Z,0
2014-06-22T00:51:04.271Z,0
2014-06-22T00:51:22.602Z,0
2014-06-22T00:51:40.727Z,0
2014-06-22T00:51:59.055Z,0
2014-06-22T00:52:17.586Z,0
2014-06-22T00:52:35.713Z,0
2014-06-22T00:52:54.244Z,0
2014-06-22T00:53:12.369Z,0
2014-06-22T00:53:30.699Z,0
2014-06-22T00:53:49.012Z,0
2014-06-22T00:54:07.340Z,0
2014-06-22T00:54:25.668Z,0
2014-06-22T00:54:43.998Z,0
2014-06-22T00:55:02.311Z,0
2014-06-22T00:55:20.654Z,0
2014-06-22T00:55:38.969Z,0
2014-06-22T00:55:57.297Z,0
2014-06-22T00:56:15.828Z,0
2014-06-22T00:56:33.953Z,0
2014-06-22T00:56:52.283Z,0
2014-06-22T00:57:10.612Z,0
2014-06-22T00:57:28.924Z,0
2014-06-22T00:57:47.255Z,0
2014-06-22T00:58:05.583Z,0
2014-06-22T00:58:23.911Z,0
2014-06-22T00:58:42.240Z,0
2014-06-22T00:59:00.757Z,0
2014-06-22T00:59:18.882Z,0
2014-06-22T00:59:37.210Z,0
2014-06-22T00:59:55.539Z,0
2014-06-22T01:00:13.868Z,0
2014-06-22T01:00:32.196Z,0
2014-06-22T01:00:50.727Z,0
2014-06-22T01:01:08.854Z,0
2014-06-22T01:01:27.182Z,0
2014-06-22T01:01:45.495Z,0
2014-06-22T01:02:03.826Z,0
2014-06-22T01:02:22.154Z,0
2014-06-22T01:02:40.482Z,0
2014-06-22T01:02:58.810Z,0
2014-06-22T01:03:17.140Z,0
2014-06-22T01:03:35.468Z,0
2014-06-22T01:03:53.796Z,0
2014-06-22T01:04:12.127Z,0
2014-06-22T01:04:30.439Z,0
2014-06-22T01:04:48.767Z,0
2014-06-22T01:05:07.095Z,0
2014-06-22T01:05:25.425Z,0
2014-06-22T01:05:43.754Z,0
2014-06-22T01:06:02.082Z,0
2014-06-22T01:06:20.396Z,0
2014-06-22T01:06:38.724Z,0
2014-06-22T01:06:57.052Z,0
2014-06-22T01:07:15.381Z,0
2014-06-22T01:07:33.710Z,0
2014-06-22T01:07:52.038Z,0
2014-06-22T01:08:10.350Z,0
2014-06-22T01:08:28.681Z,0
2014-06-22T01:08:47.010Z,0
2014-06-22T01:09:05.338Z,0
2014-06-22T01:09:23.668Z,0
2014-06-22T01:09:41.996Z,0
2014-06-22T01:10:00.324Z,0
2014-06-22T01:10:18.652Z,0
2014-06-22T01:10:36.982Z,0
2014-06-22T01:10:55.295Z,0
2014-06-22T01:11:13.623Z,0
2014-06-22T01:11:31.953Z,0
2014-06-22T01:11:50.281Z,0
2014-06-22T01:12:08.609Z,0
2014-06-22T01:12:26.938Z,0
2014-06-22T01:12:45.267Z,0
2014-06-22T01:13:03.595Z,0
2014-06-22T01:13:21.923Z,0
2014-06-22T01:13:40.253Z,0
2014-06-22T01:13:58.565Z,0
2014-06-22T01:14:16.894Z,0
2014-06-22T01:14:35.224Z,0
2014-06-22T01:14:53.552Z,0
2014-06-22T01:15:12.083Z,0
2014-06-22T01:15:30.210Z,0
2014-06-22T01:15:48.757Z,0
2014-06-22T01:16:06.866Z,0
2014-06-22T01:16:25.196Z,0
2014-06-22T01:16:43.525Z,0
2014-06-22T01:17:01.853Z,0
2014-06-22T01:17:20.165Z,0
2014-06-22T01:17:38.495Z,0
2014-06-22T01:17:56.823Z,0
2014-06-22T01:18:15.152Z,0
2014-06-22T01:18:33.482Z,0
2014-06-22T01:18:51.997Z,0
2014-06-22T01:19:10.122Z,0
2014-06-22T01:19:28.452Z,0
2014-06-22T01:19:46.968Z,0
2014-06-22T01:20:05.093Z,0
2014-06-22T01:20:23.624Z,0
2014-06-22T01:20:41.751Z,0
2014-06-22T01:21:00.267Z,0
2014-06-22T01:21:18.392Z,0
2014-06-22T01:21:36.722Z,0
2014-06-22T01:21:55.050Z,0
2014-06-22T01:22:13.581Z,0
2014-06-22T01:22:31.912Z,0
2014-06-22T01:22:50.037Z,0
2014-06-22T01:23:08.365Z,0
2014-06-22T01:23:26.693Z,0
2014-06-22T01:23:45.023Z,0
2014-06-22T01:24:03.351Z,0
2014-06-22T01:24:21.664Z,0
2014-06-22T01:24:40.197Z,0
2014-06-22T01:24:58.322Z,0
2014-06-22T01:25:16.650Z,0
2014-06-22T01:25:34.978Z,0
2014-06-22T01:25:53.308Z,0
2014-06-22T01:26:11.621Z,0
2014-06-22T01:26:29.949Z,0
2014-06-22T01:26:48.279Z,0
2014-06-22T01:27:06.607Z,0
2014-06-22T01:27:24.935Z,0
2014-06-22T01:27:43.263Z,0
2014-06-22T01:28:01.593Z,0
2014-06-22T01:28:19.906Z,0
2014-06-22T01:28:38.250Z,0
2014-06-22T01:28:56.580Z,0
2014-06-22T01:29:14.908Z,0
2014-06-22T01:29:33.236Z,0
2014-06-22T01:29:51.564Z,0
2014-06-22T01:30:09.894Z,0
2014-06-22T01:30:28.207Z,0
2014-06-22T01:30:46.535Z,0
2014-06-22T01:31:04.866Z,0
2014-06-22T01:31:23.194Z,0
2014-06-22T01:31:41.522Z,0
2014-06-22T01:31:59.835Z,0
2014-06-22T01:32:18.165Z,0
2014-06-22T01:32:36.493Z,0
2014-06-22T01:32:55.024Z,1
2014-06-22T01:33:13.150Z,1
2014-06-22T01:33:31.478Z,1
2014-06-22T01:33:49.791Z,1
2014-06-22T01:34:08.119Z,1
2014-06-22T01:34:26.449Z,1
2014-06-22T01:34:44.777Z,1
2014-06-22T01:35:03.105Z,1
2014-06-22T01:35:21.421Z,1
2014-06-22T01:35:39.749Z,1
2014-06-22T01:35:58.077Z,1
2014-06-22T01:36:16.405Z,1
2014-06-22T01:36:34.720Z,1
2014-06-22T01:36:53.048Z,1
2014-06-22T01:37:11.579Z,2
2014-06-22T01:37:29.706Z,2
2014-06-22T01:37:48.034Z,1
2014-06-22T01:38:06.362Z,1
2014-06-22T01:38:24.693Z,2
2014-06-22T01:38:43.224Z,1
2014-06-22T01:39:01.349Z,2
2014-06-22T01:39:19.677Z,2
2014-06-22T01:39:38.006Z,3
2014-06-22T01:39:56.334Z,2
2014-06-22T01:40:14.647Z,2
2014-06-22T01:40:32.992Z,2
2014-06-22T01:40:51.305Z,2
2014-06-22T01:41:09.633Z,2
2014-06-22T01:41:27.963Z,2
2014-06-22T01:41:46.291Z,2
2014-06-22T01:42:04.619Z,2
2014-06-22T01:42:22.948Z,2
2014-06-22T01:42:41.278Z,2
2014-06-22T01:42:59.606Z,2
2014-06-22T01:43:17.934Z,2
2014-06-22T01:43:36.264Z,2
2014-06-22T01:43:54.592Z,2
2014-06-22T01:44:12.905Z,2
2014-06-22T01:44:31.250Z,3
2014-06-22T01:44:49.563Z,3
2014-06-22T01:45:08.094Z,3
2014-06-22T01:45:26.221Z,3
2014-06-22T01:45:44.549Z,3
2014-06-22T01:46:02.877Z,3
2014-06-22T01:46:21.206Z,3
2014-06-22T01:46:39.739Z,3
2014-06-22T01:46:57.864Z,3
2014-06-22T01:47:16.192Z,4
2014-06-22T01:47:34.522Z,4
2014-06-22T01:47:52.850Z,4
2014-06-22T01:48:11.163Z,4
2014-06-22T01:48:29.492Z,4
2014-06-22T01:48:47.820Z,4
2014-06-22T01:49:06.148Z,4
2014-06-22T01:49:24.492Z,4
2014-06-22T01:49:42.807Z,4
2014-06-22T01:50:01.135Z,5
2014-06-22T01:50:19.464Z,5
2014-06-22T01:50:37.794Z,5
2014-06-22T01:50:56.122Z,5
2014-06-22T01:51:14.450Z,5
2014-06-22T01:51:32.778Z,5
2014-06-22T01:51:51.108Z,5
2014-06-22T01:52:09.436Z,6
2014-06-22T01:52:27.952Z,6
2014-06-22T01:52:46.079Z,6
2014-06-22T01:53:04.407Z,6
2014-06-22T01:53:22.735Z,6
2014-06-22T01:53:41.048Z,6
2014-06-22T01:53:59.378Z,6
2014-06-22T01:54:17.706Z,6
2014-06-22T01:54:36.237Z,7
2014-06-22T01:54:54.365Z,7
2014-06-22T01:55:12.693Z,7
2014-06-22T01:55:31.021Z,8
2014-06-22T01:55:49.537Z,7
2014-06-22T01:56:07.664Z,8
2014-06-22T01:56:25.992Z,8
2014-06-22T01:56:44.320Z,9
2014-06-22T01:57:02.649Z,9
2014-06-22T01:57:20.978Z,10
2014-06-22T01:57:39.306Z,11
2014-06-22T01:57:57.634Z,11
2014-06-22T01:58:15.964Z,13
2014-06-22T01:58:34.292Z,14
2014-06-22T01:58:52.620Z,15
2014-06-22T01:59:10.950Z,16
2014-06-22T01:59:29.278Z,17
2014-06-22T01:59:47.607Z,18
2014-06-22T02:00:05.935Z,19
2014-06-22T02:00:24.249Z,20
2014-06-22T02:00:42.593Z,21
2014-06-22T02:01:00.921Z,22
2014-06-22T02:01:19.237Z,23
2014-06-22T02:01:37.580Z,24
2014-06-22T02:01:55.893Z,25
2014-06-22T02:02:14.221Z,26
2014-06-22T02:02:32.754Z,27
2014-06-22T02:02:51.082Z,28
2014-06-22T02:03:09.410Z,30
2014-06-22T02:03:27.553Z,31
2014-06-22T02:03:45.881Z,32
2014-06-22T02:04:04.194Z,34
2014-06-22T02:04:22.522Z,35
2014-06-22T02:04:40.868Z,37
2014-06-22T02:04:59.196Z,38
2014-06-22T02:05:17.524Z,39
2014-06-22T02:05:35.854Z,41
2014-06-22T02:05:54.182Z,42
2014-06-22T02:06:12.495Z,44
2014-06-22T02:06:30.824Z,45
2014-06-22T02:06:49.152Z,47
2014-06-22T02:07:07.480Z,49
2014-06-22T02:07:25.810Z,50
2014-06-22T02:07:44.138Z,52
2014-06-22T02:08:02.466Z,54
2014-06-22T02:08:20.779Z,55
2014-06-22T02:08:39.125Z,57
2014-06-22T02:08:57.437Z,59
2014-06-22T02:09:15.968Z,62
2014-06-22T02:09:34.111Z,64
2014-06-22T02:09:52.439Z,65
2014-06-22T02:10:10.752Z,66
2014-06-22T02:10:29.082Z,69
2014-06-22T02:10:47.410Z,72
2014-06-22T02:11:05.738Z,74
2014-06-22T02:11:24.066Z,76
2014-06-22T02:11:42.396Z,78
2014-06-22T02:12:00.740Z,80
2014-06-22T02:12:19.052Z,81
2014-06-22T02:12:37.383Z,82
2014-06-22T02:12:55.726Z,85
2014-06-22T02:13:14.039Z,89
2014-06-22T02:13:32.385Z,92
2014-06-22T02:13:50.713Z,94
2014-06-22T02:14:09.041Z,97
2014-06-22T02:14:27.371Z,98
2014-06-22T02:14:45.699Z,101
2014-06-22T02:15:04.027Z,104
2014-06-22T02:15:22.355Z,108
2014-06-22T02:15:40.684Z,112
2014-06-22T02:15:59.216Z,115
2014-06-22T02:16:17.341Z,118
2014-06-22T02:16:35.686Z,121
2014-06-22T02:16:54.015Z,125
2014-06-22T02:17:12.343Z,127
2014-06-22T02:17:30.673Z,131
2014-06-22T02:17:49.001Z,134
2014-06-22T02:18:07.329Z,137
2014-06-22T02:18:25.657Z,140
2014-06-22T02:18:44.003Z,143
2014-06-22T02:19:02.331Z,149
2014-06-22T02:19:20.659Z,152
2014-06-22T02:19:38.989Z,157
2014-06-22T02:19:57.317Z,161
2014-06-22T02:20:15.661Z,167
2014-06-22T02:20:33.991Z,172
2014-06-22T02:20:52.319Z,178
2014-06-22T02:21:10.648Z,184
2014-06-22T02:21:28.978Z,189
2014-06-22T02:21:47.306Z,194
2014-06-22T02:22:05.634Z,198
2014-06-22T02:22:23.962Z,202
2014-06-22T02:22:42.308Z,206
2014-06-22T02:23:00.636Z,209
2014-06-22T02:23:18.964Z,211
2014-06-22T02:23:37.294Z,213
2014-06-22T02:23:55.622Z,212
2014-06-22T02:24:13.950Z,212
2014-06-22T02:24:32.281Z,214
2014-06-22T02:24:50.624Z,218
2014-06-22T02:25:08.952Z,223
2014-06-22T02:25:27.281Z,227
2014-06-22T02:25:45.611Z,230
2014-06-22T02:26:03.939Z,232
2014-06-22T02:26:22.267Z,237
2014-06-22T02:26:40.597Z,243
2014-06-22T02:26:58.925Z,250
2014-06-22T02:27:17.253Z,256
2014-06-22T02:27:35.599Z,261
2014-06-22T02:27:53.927Z,264
2014-06-22T02:28:12.255Z,268
2014-06-22T02:28:30.583Z,272
2014-06-22T02:28:48.914Z,276
2014-06-22T02:29:07.242Z,280
2014-06-22T02:29:25.570Z,283
2014-06-22T02:29:43.900Z,286
2014-06-22T02:30:02.431Z,290
2014-06-22T02:30:20.572Z,294
2014-06-22T02:30:38.900Z,300
2014-06-22T02:30:57.230Z,304
2014-06-22T02:31:15.558Z,307
2014-06-22T02:31:33.886Z,311
2014-06-22T02:31:52.216Z,314
2014-06-22T02:32:10.545Z,319
2014-06-22T02:32:28.873Z,323
2014-06-22T02:32:47.201Z,328
2014-06-22T02:33:05.548Z,334
2014-06-22T02:33:23.876Z,339
2014-06-22T02:33:42.204Z,343
2014-06-22T02:34:00.533Z,348
2014-06-22T02:34:18.861Z,353
2014-06-22T02:34:37.189Z,357
2014-06-22T02:34:55.517Z,361
2014-06-22T02:35:13.848Z,366
2014-06-22T02:35:32.177Z,372
2014-06-22T02:35:50.520Z,379
2014-06-22T02:36:08.849Z,385
2014-06-22T02:36:27.178Z,390
2014-06-22T02:36:45.506Z,395
2014-06-22T02:37:03.834Z,398
2014-06-22T02:37:22.164Z,402
2014-06-22T02:37:40.492Z,405
2014-06-22T02:37:58.820Z,409
2014-06-22T02:38:17.167Z,413
2014-06-22T02:38:35.495Z,416
2014-06-22T02:38:53.823Z,420
2014-06-22T02:39:12.151Z,423
2014-06-22T02:39:30.480Z,427
2014-06-22T02:39:48.824Z,431
2014-06-22T02:40:07.137Z,434
2014-06-22T02:40:25.482Z,438
2014-06-22T02:40:43.811Z,443
2014-06-22T02:41:02.139Z,447
2014-06-22T02:41:20.467Z,451
2014-06-22T02:41:39.001Z,455
2014-06-22T02:41:57.126Z,460
2014-06-22T02:42:15.454Z,464
2014-06-22T02:42:33.783Z,467
2014-06-22T02:42:52.127Z,471
2014-06-22T02:43:10.455Z,475
2014-06-22T02:43:28.785Z,478
2014-06-22T02:43:47.113Z,482
2014-06-22T02:44:05.442Z,486
2014-06-22T02:44:23.770Z,490
2014-06-22T02:44:42.100Z,495
2014-06-22T02:45:00.444Z,500
2014-06-22T02:45:18.772Z,505
2014-06-22T02:45:37.102Z,511
2014-06-22T02:45:55.430Z,518
2014-06-22T02:46:13.758Z,524
2014-06-22T02:46:32.104Z,530
2014-06-22T02:46:50.432Z,537
2014-06-22T02:47:08.760Z,544
2014-06-22T02:47:27.088Z,551
2014-06-22T02:47:45.418Z,557
2014-06-22T02:48:03.746Z,563
2014-06-22T02:48:22.075Z,568
2014-06-22T02:48:40.405Z,573
2014-06-22T02:48:58.748Z,578
2014-06-22T02:49:17.077Z,582
2014-06-22T02:49:35.407Z,586
2014-06-22T02:49:53.735Z,590
2014-06-22T02:50:12.079Z,594
2014-06-22T02:50:30.596Z,597
2014-06-22T02:50:48.737Z,600
2014-06-22T02:51:07.065Z,603
2014-06-22T02:51:25.393Z,606
2014-06-22T02:51:43.723Z,608
2014-06-22T02:52:02.051Z,610
2014-06-22T02:52:20.379Z,612
2014-06-22T02:52:38.709Z,614
2014-06-22T02:52:57.052Z,616
2014-06-22T02:53:15.380Z,619
2014-06-22T02:53:33.712Z,621
2014-06-22T02:53:52.040Z,623
2014-06-22T02:54:10.368Z,625
2014-06-22T02:54:28.713Z,627
2014-06-22T02:54:47.041Z,629
2014-06-22T02:55:05.369Z,630
2014-06-22T02:55:23.900Z,632
2014-06-22T02:55:42.028Z,633
2014-06-22T02:56:00.356Z,634
2014-06-22T02:56:18.700Z,636
2014-06-22T02:56:37.030Z,637
2014-06-22T02:56:55.343Z,639
2014-06-22T02:57:13.686Z,640
2014-06-22T02:57:32.015Z,642
2014-06-22T02:57:50.547Z,644
2014-06-22T02:58:08.672Z,646
2014-06-22T02:58:27.000Z,647
2014-06-22T02:58:45.330Z,649
2014-06-22T02:59:03.658Z,651
2014-06-22T02:59:21.986Z,653
2014-06-22T02:59:40.316Z,655
2014-06-22T02:59:58.644Z,657
2014-06-22T03:00:17.176Z,660
2014-06-22T03:00:35.318Z,662
2014-06-22T03:00:53.646Z,665
2014-06-22T03:01:11.975Z,667
2014-06-22T03:01:30.305Z,670
2014-06-22T03:01:48.633Z,673
2014-06-22T03:02:06.961Z,675
2014-06-22T03:02:25.289Z,678
2014-06-22T03:02:43.618Z,680
2014-06-22T03:03:01.946Z,682
2014-06-22T03:03:20.274Z,684
2014-06-22T03:03:38.620Z,685
2014-06-22T03:03:56.948Z,687
2014-06-22T03:04:15.261Z,689
2014-06-22T03:04:33.591Z,691
2014-06-22T03:04:51.935Z,693
2014-06-22T03:05:10.263Z,695
2014-06-22T03:05:28.591Z,697
2014-06-22T03:05:46.922Z,699
2014-06-22T03:06:05.250Z,700
2014-06-22T03:06:23.594Z,702
2014-06-22T03:06:41.924Z,704
2014-06-22T03:07:00.252Z,707
2014-06-22T03:07:18.580Z,710
2014-06-22T03:07:36.910Z,712
2014-06-22T03:07:55.254Z,715
2014-06-22T03:08:13.582Z,718
2014-06-22T03:08:31.910Z,721
2014-06-22T03:08:50.240Z,724
2014-06-22T03:09:08.583Z,728
2014-06-22T03:09:26.911Z,731
2014-06-22T03:09:45.243Z,734
2014-06-22T03:10:03.571Z,737
2014-06-22T03:10:21.899Z,740
2014-06-22T03:10:40.229Z,744
2014-06-22T03:10:58.557Z,747
2014-06-22T03:11:16.885Z,751
2014-06-22T03:11:35.229Z,754
2014-06-22T03:11:53.559Z,756
2014-06-22T03:12:11.887Z,758
2014-06-22T03:12:30.418Z,759
2014-06-22T03:12:48.748Z,761
2014-06-22T03:13:06.873Z,762
2014-06-22T03:13:25.216Z,763
2014-06-22T03:13:43.544Z,764
2014-06-22T03:14:01.876Z,766
2014-06-22T03:14:20.204Z,766
2014-06-22T03:14:38.532Z,766
2014-06-22T03:14:56.878Z,766
2014-06-22T03:15:15.206Z,766
2014-06-22T03:15:33.534Z,766
2014-06-22T03:15:51.862Z,766
2014-06-22T03:16:10.176Z,766
2014-06-22T03:16:28.520Z,766
2014-06-22T03:16:46.848Z,766
2014-06-22T03:17:05.178Z,766
2014-06-22T03:17:23.507Z,766
2014-06-22T03:17:41.835Z,766
2014-06-22T03:18:00.163Z,766
2014-06-22T03:18:18.493Z,766
2014-06-22T03:18:36.821Z,766
2014-06-22T03:18:55.149Z,766
2014-06-22T03:19:13.495Z,766
2014-06-22T03:19:32.026Z,766
2014-06-22T03:19:50.151Z,766
2014-06-22T03:20:08.479Z,766
2014-06-22T03:20:26.809Z,766
2014-06-22T03:20:45.153Z,766
2014-06-22T03:21:03.669Z,766
2014-06-22T03:21:21.811Z,766
2014-06-22T03:21:40.140Z,766
2014-06-22T03:21:58.468Z,766
2014-06-22T03:22:16.796Z,766
2014-06-22T03:22:35.127Z,766
2014-06-22T03:22:53.455Z,766
2014-06-22T03:23:11.783Z,766
2014-06-22T03:23:30.112Z,766
2014-06-22T03:23:48.440Z,766
2014-06-22T03:24:06.784Z,766
2014-06-22T03:24:25.112Z,766
2014-06-22T03:24:43.442Z,766
2014-06-22T03:25:01.771Z,766
2014-06-22T03:25:20.302Z,766
2014-06-22T03:25:38.444Z,766
2014-06-22T03:25:56.773Z,766
2014-06-22T03:26:15.101Z,766
2014-06-22T03:26:33.431Z,766
2014-06-22T03:26:51.759Z,766
2014-06-22T03:27:10.087Z,766
2014-06-22T03:27:28.415Z,766
2014-06-22T03:27:46.761Z,766
2014-06-22T03:28:05.089Z,766
2014-06-22T03:28:23.417Z,766
2014-06-22T03:28:41.747Z,766
2014-06-22T03:29:00.075Z,766
2014-06-22T03:29:18.404Z,766
2014-06-22T03:29:36.937Z,766
2014-06-22T03:29:55.062Z,766
2014-06-22T03:30:13.390Z,766
2014-06-22T03:30:31.718Z,766
2014-06-22T03:30:50.064Z,766
2014-06-22T03:31:08.392Z,766
2014-06-22T03:31:26.720Z,766
2014-06-22T03:31:45.050Z,766
2014-06-22T03:32:03.378Z,766
2014-06-22T03:32:21.706Z,766
2014-06-22T03:32:40.037Z,766
2014-06-22T03:32:58.380Z,766
2014-06-22T03:33:16.708Z,766
2014-06-22T03:33:35.037Z,766
2014-06-22T03:33:53.367Z,766
2014-06-22T03:34:11.695Z,766
2014-06-22T03:34:30.023Z,766
2014-06-22T03:34:48.353Z,766
2014-06-22T03:35:06.681Z,766
2014-06-22T03:35:25.009Z,766
2014-06-22T03:35:43.353Z,766
2014-06-22T03:36:01.683Z,766
2014-06-22T03:36:20.011Z,766
2014-06-22T03:36:38.339Z,766
2014-06-22T03:36:56.857Z,766
2014-06-22T03:37:14.998Z,766
2014-06-22T03:37:33.326Z,766
2014-06-22T03:37:51.654Z,766
2014-06-22T03:38:09.984Z,766
2014-06-22T03:38:28.312Z,766
2014-06-22T03:38:46.640Z,766
2014-06-22T03:39:04.970Z,766
2014-06-22T03:39:23.299Z,766
2014-06-22T03:39:41.627Z,766
2014-06-22T03:39:59.955Z,766
2014-06-22T03:40:18.302Z,766
2014-06-22T03:40:36.630Z,766
2014-06-22T03:40:54.958Z,766
2014-06-22T03:41:13.287Z,766
2014-06-22T03:41:31.818Z,766
2014-06-22T03:41:49.959Z,766
2014-06-22T03:42:08.287Z,766
2014-06-22T03:42:26.617Z,766
2014-06-22T03:42:44.945Z,766
2014-06-22T03:43:03.273Z,766
2014-06-22T03:43:21.603Z,766
2014-06-22T03:43:39.947Z,766
2014-06-22T03:43:58.275Z,766
2014-06-22T03:44:16.603Z,766
2014-06-22T03:44:34.934Z,766
2014-06-22T03:44:53.262Z,766
2014-06-22T03:45:11.590Z,766
2014-06-22T03:45:29.920Z,766
2014-06-22T03:45:48.264Z,766
2014-06-22T03:46:06.592Z,766
2014-06-22T03:46:24.922Z,766
2014-06-22T03:46:43.250Z,766
2014-06-22T03:47:01.578Z,766
2014-06-22T03:47:19.906Z,766
2014-06-22T03:47:38.237Z,766
2014-06-22T03:47:56.566Z,766
2014-06-22T03:48:14.894Z,766
2014-06-22T03:48:33.223Z,766
2014-06-22T03:48:51.551Z,766
2014-06-22T03:49:09.879Z,766
2014-06-22T03:49:28.223Z,766
2014-06-22T03:49:46.553Z,766
2014-06-22T03:50:04.881Z,766
2014-06-22T03:50:23.209Z,766
2014-06-22T03:50:41.539Z,766
2014-06-22T03:50:59.867Z,766
2014-06-22T03:51:18.196Z,766
2014-06-22T03:51:36.526Z,766
2014-06-22T03:51:54.854Z,766
2014-06-22T03:52:13.182Z,766
2014-06-22T03:52:31.510Z,766
2014-06-22T03:52:49.840Z,766
2014-06-22T03:53:08.168Z,766
2014-06-22T03:53:26.512Z,766
2014-06-22T03:53:44.843Z,766
2014-06-22T03:54:03.171Z,766
2014-06-22T03:54:21.515Z,766
2014-06-22T03:54:39.843Z,766
2014-06-22T03:54:58.172Z,766
2014-06-22T03:55:16.485Z,766
2014-06-22T03:55:34.829Z,766
2014-06-22T03:55:53.159Z,766
2014-06-22T03:56:11.487Z,766
2014-06-22T03:56:29.815Z,766
2014-06-22T03:56:48.143Z,766
2014-06-22T03:57:06.473Z,766
2014-06-22T03:57:24.801Z,766
2014-06-22T03:57:43.129Z,766
2014-06-22T03:58:01.679Z,766
2014-06-22T03:58:19.804Z,766
2014-06-22T03:58:38.132Z,766
2014-06-22T03:58:56.461Z,766
2014-06-22T03:59:14.806Z,766
2014-06-22T03:59:33.134Z,766
2014-06-22T03:59:51.463Z,766
2014-06-22T04:00:09.793Z,766
2014-06-22T04:00:28.121Z,766
2014-06-22T04:00:46.449Z,766
2014-06-22T04:01:04.777Z,766
2014-06-22T04:01:23.122Z,766
2014-06-22T04:01:41.450Z,766
2014-06-22T04:01:59.778Z,766
2014-06-22T04:02:18.109Z,766
2014-06-22T04:02:36.640Z,766
2014-06-22T04:02:54.781Z,766
2014-06-22T04:03:13.109Z,766
2014-06-22T04:03:31.439Z,766
2014-06-22T04:03:49.767Z,766
2014-06-22T04:04:08.096Z,766
2014-06-22T04:04:26.426Z,766
2014-06-22T04:04:44.754Z,766
2014-06-22T04:05:03.082Z,766
2014-06-22T04:05:21.426Z,766
2014-06-22T04:05:39.943Z,766
2014-06-22T04:05:58.084Z,766
2014-06-22T04:06:16.412Z,766
2014-06-22T04:06:34.758Z,766
2014-06-22T04:06:53.070Z,766
2014-06-22T04:07:11.398Z,766
2014-06-22T04:07:29.727Z,766
2014-06-22T04:07:48.072Z,767
2014-06-22T04:08:06.385Z,766
2014-06-22T04:08:24.713Z,767
2014-06-22T04:08:43.042Z,767
2014-06-22T04:09:01.386Z,767
2014-06-22T04:09:19.714Z,767
2014-06-22T04:09:38.044Z,767
2014-06-22T04:09:56.372Z,767
2014-06-22T04:10:14.700Z,767
2014-06-22T04:10:33.044Z,767
2014-06-22T04:10:51.374Z,767
2014-06-22T04:11:09.702Z,767
2014-06-22T04:11:28.015Z,767
2014-06-22T04:11:46.361Z,767
2014-06-22T04:12:04.689Z,767
2014-06-22T04:12:23.017Z,767
2014-06-22T04:12:41.347Z,767
2014-06-22T04:12:59.691Z,767
2014-06-22T04:13:18.003Z,767
2014-06-22T04:13:36.350Z,767
2014-06-22T04:13:54.678Z,767
2014-06-22T04:14:13.006Z,767
2014-06-22T04:14:31.334Z,767
2014-06-22T04:14:49.664Z,767
2014-06-22T04:15:07.993Z,767
2014-06-22T04:15:26.524Z,767
2014-06-22T04:15:44.651Z,767
2014-06-22T04:16:02.979Z,767
2014-06-22T04:16:21.323Z,767
2014-06-22T04:16:39.635Z,767
2014-06-22T04:16:57.981Z,767
2014-06-22T04:17:16.293Z,767
2014-06-22T04:17:34.637Z,767
2014-06-22T04:17:53.154Z,767
2014-06-22T04:18:11.294Z,767
2014-06-22T04:18:29.623Z,767
2014-06-22T04:18:47.953Z,767
2014-06-22T04:19:06.281Z,767
2014-06-22T04:19:24.609Z,767
2014-06-22T04:19:42.906Z,767
2014-06-22T04:20:01.283Z,767
2014-06-22T04:20:19.611Z,767
2014-06-22T04:20:37.923Z,767
2014-06-22T04:20:56.254Z,767